Terminal Aerodrome Forecast
Issued by NWS St Louis, MO

Home | Current Version | Previous Version | Text Only | Print | Product List | Glossary On
Versions: 1 2 3 4 5 6 7 8 9 10 11 12 13 14 15
081
FTUS43 KLSX 230520
TAFCOU
TAF
KCOU 230520Z 2306/2406 18008KT P6SM SCT100
     FM231000 20006KT P6SM VCTS BKN045CB
      TEMPO 2310/2312 6SM -SHRA OVC030
     FM231400 35012KT P6SM BKN015
     FM231700 36014G20KT P6SM SCT025
     FM240200 32006KT P6SM FEW250=

USA.gov is the U.S. government's official web portal to all federal, state and local government web resources and services.